Time;durP1;ratioP1;P1;durP2;ratioP2;P2;SDS_P1;SDS_P2;PMS_P1;PMS_P2;Temp;Humidity;BMP_temperature;BMP_pressure;BME280_temperature;BME280_humidity;BME280_pressure;Samples;Min_cycle;Max_cycle;Signal;HPM_P1;HPM_P2
2022/04/01 00:01:14;;;;;;;;;;;8.50;76.20;;;7.42;72.03;94280.28;4292186;33;19908;-81
2022/04/01 00:03:42;;;;;;;;;;;8.50;76.30;;;7.42;71.69;94265.88;4267214;33;19901;-82
2022/04/01 00:06:11;;;;;;;;;;;8.50;76.10;;;7.43;71.68;94268.28;4266579;33;20167;-82
2022/04/01 00:08:39;;;;;;;;;;;8.50;76.20;;;7.43;71.64;94270.19;4243187;33;19971;-82
2022/04/01 00:11:09;;;;;;;;;;;8.50;76.20;;;7.42;71.97;94274.81;4267038;33;19949;-81
2022/04/01 00:13:38;;;;;;;;;;;8.50;76.20;;;7.42;72.13;94284.91;4266768;33;20225;-82
2022/04/01 00:16:07;;;;;;;;;;;8.50;76.30;;;7.43;72.55;94286.50;4266488;33;20105;-83
2022/04/01 00:18:36;;;;;;;;;;;8.50;76.40;;;7.43;71.90;94291.94;4241926;33;19902;-82
2022/04/01 00:21:04;;;;;;;;;;;8.50;76.30;;;7.43;71.93;94294.69;4243066;33;20061;-82
2022/04/01 00:23:32;;;;;;;;;;;8.50;76.30;;;7.42;71.89;94299.31;4266831;33;19908;-82
2022/04/01 00:26:01;;;;;;;;;;;8.50;76.20;;;7.43;71.76;94294.69;4242972;33;19998;-82
2022/04/01 00:28:31;;;;;;;;;;;8.50;76.20;;;7.42;71.53;94288.44;4266171;33;19909;-82
2022/04/01 00:30:59;;;;;;;;;;;8.50;76.30;;;7.42;71.81;94284.91;4266772;33;20134;-82
2022/04/01 00:33:28;;;;;;;;;;;8.50;76.30;;;7.43;71.87;94279.16;4242843;33;19901;-82
2022/04/01 00:35:56;;;;;;;;;;;8.50;76.30;;;7.44;71.23;94285.41;4242834;33;20033;-82
2022/04/01 00:38:25;;;;;;;;;;;8.50;76.30;;;7.43;71.77;94281.06;4262748;33;19909;-81
2022/04/01 00:40:53;;;;;;;;;;;8.50;76.30;;;7.43;72.03;94275.63;4214826;33;20225;-82
2022/04/01 00:43:27;;;;;;;;;;;8.50;76.20;;;7.44;71.70;94277.25;4238054;33;20149;-82
2022/04/01 00:45:57;;;;;;;;;;;8.50;76.30;;;7.43;71.66;94275.63;4214401;33;19902;-82
2022/04/01 00:48:26;;;;;;;;;;;8.50;76.40;;;7.43;72.01;94275.63;4237443;33;20077;-82
2022/04/01 00:50:55;;;;;;;;;;;8.50;76.40;;;7.43;72.18;94267.44;4237794;33;20081;-81
2022/04/01 00:53:23;;;;;;;;;;;8.50;76.40;;;7.42;71.67;94257.69;4214481;33;19902;-82
2022/04/01 00:55:52;;;;;;;;;;;8.50;76.30;;;7.43;71.80;94268.28;4237787;33;19902;-81
2022/04/01 00:58:20;;;;;;;;;;;8.50;76.40;;;7.42;71.92;94266.66;4236823;33;19902;-81
2022/04/01 01:00:49;;;;;;;;;;;8.50;76.30;;;7.43;71.99;94281.06;4261673;33;19902;-82
2022/04/01 01:03:20;;;;;;;;;;;8.50;76.40;;;7.42;72.33;94280.28;4261668;33;19909;-82
2022/04/01 01:05:49;;;;;;;;;;;8.50;76.40;;;7.43;72.24;94264.72;4214454;33;19902;-82
2022/04/01 01:08:18;;;;;;;;;;;8.50;76.40;;;7.42;72.00;94261.22;4213769;33;19902;-82
2022/04/01 01:10:46;;;;;;;;;;;8.50;76.50;;;7.43;72.28;94278.34;4261512;33;19909;-82
2022/04/01 01:13:15;;;;;;;;;;;8.50;76.40;;;7.43;71.98;94287.34;4214123;33;19902;-82
2022/04/01 01:15:43;;;;;;;;;;;8.50;76.40;;;7.43;71.98;94281.06;4237539;33;19969;-82
2022/04/01 01:18:14;;;;;;;;;;;8.50;76.40;;;7.43;71.62;94267.44;4237156;33;20227;-82
2022/04/01 01:20:44;;;;;;;;;;;8.50;76.40;;;7.43;71.37;94276.44;4237731;33;20168;-81
2022/04/01 01:23:14;;;;;;;;;;;8.50;76.40;;;7.43;72.28;94272.91;4237606;33;20016;-81
2022/04/01 01:25:45;;;;;;;;;;;8.50;76.40;;;7.44;71.96;94271.78;4237677;33;19939;-81
2022/04/01 01:28:14;;;;;;;;;;;8.50;76.40;;;7.43;71.84;94265.56;4237220;33;19902;-81
2022/04/01 01:30:44;;;;;;;;;;;8.50;76.40;;;7.44;72.37;94279.97;4237698;33;19909;-82
2022/04/01 01:33:12;;;;;;;;;;;8.50;76.40;;;7.44;72.09;94277.25;4262243;33;20243;-82
2022/04/01 01:35:41;;;;;;;;;;;8.50;76.50;;;7.44;71.87;94285.41;4237530;33;19901;-82
2022/04/01 01:38:10;;;;;;;;;;;8.50;76.50;;;7.44;71.96;94282.69;4260865;33;20024;-82
2022/04/01 01:40:38;;;;;;;;;;;8.50;76.50;;;7.43;71.86;94270.19;4237694;33;20128;-82
2022/04/01 01:43:08;;;;;;;;;;;8.50;76.50;;;7.42;72.51;94263.94;4262139;33;19909;-81
2022/04/01 01:45:37;;;;;;;;;;;8.50;76.60;;;7.44;71.99;94258.19;4237477;33;20629;-82
2022/04/01 01:48:05;;;;;;;;;;;8.50;76.60;;;7.42;72.01;94258.50;4236967;33;19902;-82
2022/04/01 01:56:06;;;;;;;;;;;8.50;76.40;;;7.44;72.17;94266.34;4237366;33;20132;-81
2022/04/01 01:58:37;;;;;;;;;;;8.50;76.50;;;7.44;71.64;94269.06;4237244;33;19924;-81
2022/04/01 02:01:06;;;;;;;;;;;8.50;76.50;;;7.44;72.14;94267.19;4213968;33;19975;-82
2022/04/01 02:03:34;;;;;;;;;;;8.50;76.50;;;7.44;72.28;94256.28;4237434;33;20233;-81
2022/04/01 02:06:03;;;;;;;;;;;8.50;76.50;;;7.43;71.99;94265.56;4213797;33;19901;-82
2022/04/01 02:08:32;;;;;;;;;;;8.50;76.60;;;7.44;72.03;94269.91;4214622;33;20482;-82
2022/04/01 02:11:00;;;;;;;;;;;8.50;76.60;;;7.44;72.06;94263.63;4239850;33;19909;-82
2022/04/01 02:13:31;;;;;;;;;;;8.50;76.60;;;7.44;71.95;94261.72;4216175;33;20262;-82
2022/04/01 02:16:01;;;;;;;;;;;8.50;77.50;;;7.45;72.19;94267.97;4216179;33;19902;-82
2022/04/01 02:18:30;;;;;;;;;;;8.50;76.60;;;7.44;71.89;94261.72;4224967;33;20100;-82
2022/04/01 02:20:58;;;;;;;;;;;8.50;76.60;;;7.44;72.38;94269.91;4268339;33;20410;-82
2022/04/01 02:23:27;;;;;;;;;;;8.50;76.60;;;7.44;72.31;94255.47;4244552;33;19901;-81
2022/04/01 02:25:56;;;;;;;;;;;8.50;76.60;;;7.44;72.20;94258.19;4244464;33;19909;-82
2022/04/01 02:28:29;;;;;;;;;;;8.50;76.60;;;7.44;72.06;94269.06;4267649;33;19908;-82
2022/04/01 02:31:00;;;;;;;;;;;8.50;76.60;;;7.43;72.54;94265.56;4268443;33;20121;-81
2022/04/01 02:33:58;;;;;;;;;;;8.50;76.70;;;7.45;71.84;94265.25;4216291;33;20161;-81
2022/04/01 02:36:27;;;;;;;;;;;8.50;76.70;;;7.44;71.88;94258.19;4243852;33;20066;-81
2022/04/01 02:38:56;;;;;;;;;;;8.50;76.70;;;7.45;72.05;94267.97;4244184;33;20269;-82
2022/04/01 02:41:25;;;;;;;;;;;8.50;76.60;;;7.44;72.07;94267.19;4293701;33;19902;-82
2022/04/01 02:44:08;;;;;;;;;;;8.50;76.70;;;7.43;71.76;94265.56;4244330;33;20205;-81
2022/04/01 02:46:40;;;;;;;;;;;8.50;76.70;;;7.44;72.08;94267.19;4267706;33;19908;-82
2022/04/01 02:49:09;;;;;;;;;;;8.50;76.70;;;7.44;72.06;94250.84;4243402;33;19908;-82
2022/04/01 02:52:16;;;;;;;;;;;8.50;76.80;;;7.44;72.37;94250.00;4255741;33;19909;-82
2022/04/01 02:54:45;;;;;;;;;;;8.50;76.70;;;7.44;72.37;94244.56;4243546;33;20232;-82
2022/04/01 02:57:14;;;;;;;;;;;8.50;76.60;;;7.44;72.13;94255.47;4244140;33;20131;-82
2022/04/01 02:59:44;;;;;;;;;;;8.50;76.60;;;7.44;72.01;94259.00;4245262;33;19902;-82
2022/04/01 03:02:14;;;;;;;;;;;8.50;76.70;;;7.43;72.09;94256.56;4268208;33;19901;-82
2022/04/01 03:04:43;;;;;;;;;;;8.50;76.60;;;7.45;72.42;94246.19;4244191;33;20040;-82
2022/04/01 03:07:11;;;;;;;;;;;8.50;76.70;;;7.45;72.67;94252.47;4267429;33;19908;-81
2022/04/01 03:09:40;;;;;;;;;;;8.50;76.70;;;7.44;72.48;94260.91;4267943;33;19966;-81
2022/04/01 03:12:35;;;;;;;;;;;8.50;76.80;;;7.44;72.61;94269.91;4291407;33;19923;-82
2022/04/01 03:15:18;;;;;;;;;;;8.50;76.80;;;7.44;72.55;94280.78;4243878;33;19909;-82
2022/04/01 03:18:06;;;;;;;;;;;8.60;76.80;;;7.45;72.46;94295.19;4263678;27;19916;-86
2022/04/01 03:20:45;;;;;;;;;;;8.50;76.70;;;7.45;72.20;94284.31;4172600;33;19902;-86
2022/04/01 03:23:13;;;;;;;;;;;8.50;76.70;;;7.45;72.39;94292.47;4182079;33;19925;-86
2022/04/01 03:25:44;;;;;;;;;;;8.50;76.70;;;7.44;72.54;94294.41;4200275;33;20129;-85
2022/04/01 03:28:25;;;;;;;;;;;8.50;76.70;;;7.45;71.95;94301.47;4177640;34;20464;-86
2022/04/01 03:30:59;;;;;;;;;;;8.50;76.70;;;7.45;71.77;94300.63;4201239;33;20330;-86
2022/04/01 03:33:35;;;;;;;;;;;8.50;76.40;;;7.44;72.20;94305.28;4178063;34;20149;-86
2022/04/01 03:36:05;;;;;;;;;;;8.50;76.40;;;7.45;72.64;94300.63;4178138;34;20187;-87
2022/04/01 03:38:38;;;;;;;;;;;8.50;76.50;;;7.45;71.86;94309.63;4201302;33;19902;-86
2022/04/01 03:41:10;;;;;;;;;;;8.50;76.50;;;7.45;72.05;94289.75;4161884;34;20162;-88
2022/04/01 03:43:40;;;;;;;;;;;8.50;76.50;;;7.44;72.11;94288.13;4132963;34;19903;-89
2022/04/01 03:46:13;;;;;;;;;;;8.50;76.50;;;7.44;72.14;94291.69;4132394;34;19910;-89
2022/04/01 03:48:50;;;;;;;;;;;8.60;76.50;;;7.47;71.91;94306.59;4171371;33;19903;-88
2022/04/01 03:51:22;;;;;;;;;;;8.50;76.50;;;7.46;72.14;94299.53;4178886;34;19994;-88
2022/04/01 03:53:55;;;;;;;;;;;8.60;76.50;;;7.44;72.20;94304.47;4182372;33;20137;-88
2022/04/01 03:56:31;;;;;;;;;;;8.50;76.60;;;7.44;71.81;94299.03;4182295;33;19906;-88
2022/04/01 03:59:18;;;;;;;;;;;8.60;76.60;;;7.44;72.07;94299.84;4205731;33;20004;-87
2022/04/01 04:02:25;;;;;;;;;;;8.60;76.60;;;7.46;72.35;94313.16;4178853;33;19910;-88
2022/04/01 04:04:57;;;;;;;;;;;8.60;76.60;;;7.46;72.04;94310.41;4182308;33;20102;-88
2022/04/01 04:07:26;;;;;;;;;;;8.60;76.60;;;7.46;72.40;94300.34;4181949;33;19903;-88
2022/04/01 04:09:55;;;;;;;;;;;8.60;76.50;;;7.46;72.08;94302.25;4182369;33;19917;-89
2022/04/01 04:12:27;;;;;;;;;;;8.60;76.50;;;7.46;71.63;94296.81;4159962;33;20292;-88
2022/04/01 04:15:08;;;;;;;;;;;8.60;76.40;;;7.46;72.35;94296.81;4182628;33;19914;-89
2022/04/01 04:17:45;;;;;;;;;;;8.60;76.50;;;7.47;72.15;94306.59;4159357;33;19983;-89
2022/04/01 04:20:20;;;;;;;;;;;8.60;76.60;;;7.46;72.31;94319.41;4200391;33;20157;-89
2022/04/01 04:22:59;;;;;;;;;;;8.60;76.60;;;7.47;72.11;94328.38;4168902;34;19910;-90
2022/04/01 04:25:34;;;;;;;;;;;8.60;76.60;;;7.47;71.85;94315.59;4185242;33;20046;-90
2022/04/01 04:28:02;;;;;;;;;;;8.60;76.60;;;7.45;71.94;94322.41;4205883;33;20122;-89
2022/04/01 04:30:33;;;;;;;;;;;8.60;76.60;;;7.47;72.29;94337.38;4183073;33;19902;-89
2022/04/01 04:33:34;;;;;;;;;;;8.60;76.60;;;7.47;72.28;94334.66;4137810;33;20137;-89
2022/04/01 04:36:06;;;;;;;;;;;8.60;76.60;;;7.46;72.24;94329.47;4185969;33;20099;-89
2022/04/01 04:38:56;;;;;;;;;;;8.60;76.60;;;7.47;71.80;94331.94;4179162;34;19910;-89
2022/04/01 04:41:25;;;;;;;;;;;8.60;76.60;;;7.45;72.28;94328.69;4195327;33;19909;-89
2022/04/01 04:44:04;;;;;;;;;;;8.60;76.70;;;7.47;72.56;94334.66;4184228;33;19911;-90
2022/04/01 04:46:33;;;;;;;;;;;8.60;76.60;;;7.48;72.27;94343.63;4209431;33;20414;-88
2022/04/01 04:49:08;;;;;;;;;;;8.60;76.60;;;7.47;71.92;94331.09;4183712;33;20280;-88
2022/04/01 04:51:38;;;;;;;;;;;8.60;76.60;;;7.47;72.45;94331.09;4182737;33;19902;-88
2022/04/01 04:54:20;;;;;;;;;;;8.60;76.60;;;7.48;72.13;94340.88;4182192;33;19903;-87
2022/04/01 04:57:04;;;;;;;;;;;8.60;76.70;;;7.47;71.96;94337.38;4204946;33;20159;-87
2022/04/01 04:59:34;;;;;;;;;;;8.60;76.60;;;7.48;71.95;94327.28;4182381;33;19909;-87
2022/04/01 05:02:20;;;;;;;;;;;8.60;76.60;;;7.49;72.72;94339.78;4181997;33;19907;-87
2022/04/01 05:05:03;;;;;;;;;;;8.60;76.60;;;7.49;72.10;94326.16;4181834;33;20041;-87
2022/04/01 05:07:56;;;;;;;;;;;8.60;76.60;;;7.47;72.45;94309.31;4181320;33;19903;-87
2022/04/01 05:11:06;;;;;;;;;;;8.60;76.60;;;7.49;72.29;94312.56;4177104;34;20137;-87
2022/04/01 05:13:43;;;;;;;;;;;8.60;76.70;;;7.50;72.12;94316.91;4178407;33;19910;-88
2022/04/01 05:16:31;;;;;;;;;;;8.60;77.50;;;7.49;71.42;94318.00;4182226;33;20133;-88
2022/04/01 05:19:04;;;;;;;;;;;8.60;76.60;;;7.52;71.87;94312.75;4182531;33;19909;-88
2022/04/01 05:21:42;;;;;;;;;;;8.60;76.60;;;7.55;72.04;94310.56;4177997;34;19992;-88
2022/04/01 05:24:14;;;;;;;;;;;8.60;76.50;;;7.58;72.10;94299.06;4178487;34;20221;-89
2022/04/01 05:26:52;;;;;;;;;;;8.70;76.50;;;7.62;72.20;94300.91;4161360;34;20124;-88
2022/04/01 05:29:43;;;;;;;;;;;8.70;76.40;;;7.69;72.51;94295.06;4156149;34;20069;-89
2022/04/01 05:32:13;;;;;;;;;;;8.80;76.50;;;7.90;71.63;94287.34;4202251;33;20107;-89
2022/04/01 05:34:45;;;;;;;;;;;9.00;76.50;;;8.13;70.72;94287.44;4180352;34;20169;-88
2022/04/01 05:37:15;;;;;;;;;;;9.20;75.50;;;8.31;70.29;94282.22;4179869;33;19910;-89
2022/04/01 05:39:47;;;;;;;;;;;9.40;74.60;;;8.49;69.76;94281.31;4209680;33;20071;-89
2022/04/01 05:42:18;;;;;;;;;;;9.70;74.00;;;8.70;69.49;94283.63;4208799;33;20141;-89
2022/04/01 05:45:12;;;;;;;;;;;9.90;73.20;;;8.95;69.09;94273.25;4186388;33;19981;-89
2022/04/01 05:47:41;;;;;;;;;;;10.30;72.20;;;9.20;68.08;94277.28;4195140;33;19910;-90
2022/04/01 05:50:10;;;;;;;;;;;10.60;71.00;;;9.40;67.35;94276.00;4162022;33;19903;-89
2022/04/01 05:52:39;;;;;;;;;;;10.90;69.80;;;9.50;66.47;94273.00;4208271;33;19903;-90
2022/04/01 05:55:11;;;;;;;;;;;11.00;68.60;;;9.54;65.88;94269.66;4185195;33;20259;-89
2022/04/01 05:57:40;;;;;;;;;;;11.00;68.00;;;9.60;66.23;94276.63;4184558;33;19917;-90
2022/04/01 06:00:12;;;;;;;;;;;11.10;68.10;;;9.74;65.68;94280.06;4208340;33;19907;-90
2022/04/01 06:03:09;;;;;;;;;;;11.20;67.90;;;9.89;64.99;94283.50;4208083;33;20333;-89
2022/04/01 06:05:39;;;;;;;;;;;11.30;67.60;;;9.86;64.81;94278.69;4187599;33;19926;-90
2022/04/01 06:08:18;;;;;;;;;;;11.20;67.20;;;9.86;64.72;94273.22;4207470;33;20255;-89
2022/04/01 06:11:00;;;;;;;;;;;11.20;67.30;;;9.80;65.01;94276.06;4184787;33;19927;-90
2022/04/01 06:14:01;;;;;;;;;;;11.10;67.60;;;9.72;65.47;94268.66;4158098;34;20376;-90
2022/04/01 06:17:05;;;;;;;;;;;11.00;68.10;;;9.66;65.69;94275.34;4166770;34;20121;-89
2022/04/01 06:19:43;;;;;;;;;;;10.90;68.80;;;9.62;66.06;94277.09;4179883;34;19904;-89
2022/04/01 06:22:15;;;;;;;;;;;10.80;69.10;;;9.54;66.36;94261.47;4157068;34;19911;-90
2022/04/01 06:24:56;;;;;;;;;;;10.80;69.50;;;9.45;66.68;94259.50;4156921;34;19930;-90
2022/04/01 06:27:35;;;;;;;;;;;10.70;70.00;;;9.40;66.91;94259.59;4179491;34;19911;-89
2022/04/01 06:30:21;;;;;;;;;;;10.60;70.40;;;9.37;67.19;94271.13;4157061;34;19930;-90
2022/04/01 06:33:02;;;;;;;;;;;10.50;70.70;;;9.33;67.20;94281.09;4180055;34;20132;-90
2022/04/01 06:35:57;;;;;;;;;;;10.50;71.10;;;9.31;67.90;94277.84;4170458;34;19926;-90
2022/04/01 06:38:40;;;;;;;;;;;10.50;71.50;;;9.29;67.93;94269.16;4156772;34;19988;-90
2022/04/01 06:41:10;;;;;;;;;;;10.40;71.60;;;9.30;68.03;94265.31;4179984;34;20102;-91
2022/04/01 06:43:51;;;;;;;;;;;10.40;71.80;;;9.25;68.14;94266.25;4157218;34;20128;-90
2022/04/01 06:46:38;;;;;;;;;;;10.40;71.80;;;9.13;68.73;94266.00;4179551;33;20134;-90
2022/04/01 06:49:16;;;;;;;;;;;10.30;71.80;;;9.03;68.44;94269.78;4180061;34;20087;-91
2022/04/01 06:51:47;;;;;;;;;;;10.20;72.10;;;8.96;68.82;94277.59;4179976;34;20005;-90
2022/04/01 06:54:28;;;;;;;;;;;10.20;72.50;;;8.87;69.32;94275.56;4179449;34;19903;-90
2022/04/01 06:57:15;;;;;;;;;;;10.10;72.90;;;8.79;69.54;94270.84;4200378;33;20112;-90
2022/04/01 07:00:08;;;;;;;;;;;10.00;73.20;;;8.82;69.67;94274.88;4183568;33;19909;-89
2022/04/01 07:02:37;;;;;;;;;;;9.90;73.70;;;8.80;69.76;94277.09;4182482;33;19910;-90
2022/04/01 07:05:08;;;;;;;;;;;10.00;73.70;;;8.73;70.13;94272.06;4180877;34;19926;-90
2022/04/01 07:07:42;;;;;;;;;;;9.90;73.70;;;8.67;69.87;94273.31;4156385;34;19911;-89
2022/04/01 07:11:26;;;;;;;;;;;9.80;73.80;;;8.62;70.29;94270.69;4157309;34;19910;-90
2022/04/01 07:14:00;;;;;;;;;;;9.80;74.80;;;8.54;70.32;94264.84;4156924;34;19903;-90
2022/04/01 07:16:33;;;;;;;;;;;9.70;74.30;;;8.51;70.14;94264.66;4179326;34;20005;-90
2022/04/01 07:19:03;;;;;;;;;;;9.70;74.40;;;8.48;70.59;94268.78;4179597;34;20214;-90
2022/04/01 07:21:31;;;;;;;;;;;9.60;74.50;;;8.44;70.19;94260.38;4179835;34;20130;-90
2022/04/01 07:24:20;;;;;;;;;;;9.60;74.60;;;8.43;70.77;94269.66;4156664;34;20240;-90
2022/04/01 07:30:10;;;;;;;;;;;9.50;75.00;;;8.44;70.64;94263.09;4156452;34;19953;-89
2022/04/01 07:36:26;;;;;;;;;;;9.50;75.20;;;8.52;71.00;94280.69;4178080;33;19952;-90
2022/04/01 07:38:55;;;;;;;;;;;9.60;75.20;;;8.58;70.49;94265.81;4172668;33;19936;-91
2022/04/01 07:41:24;;;;;;;;;;;9.60;75.10;;;8.60;70.70;94258.16;4207136;33;19909;-90
2022/04/01 07:43:52;;;;;;;;;;;9.60;75.00;;;8.62;70.30;94265.22;4161022;33;19903;-89
2022/04/01 07:46:30;;;;;;;;;;;9.70;74.90;;;8.61;70.25;94269.88;4183400;33;20026;-90
2022/04/01 07:49:27;;;;;;;;;;;9.70;74.90;;;8.62;70.41;94270.69;4215365;33;20406;-90
2022/04/01 07:51:55;;;;;;;;;;;9.70;74.80;;;8.60;70.52;94252.69;4206865;33;20126;-90
2022/04/01 07:54:24;;;;;;;;;;;9.70;74.80;;;8.60;70.67;94252.69;4207078;33;20343;-90
2022/04/01 07:56:52;;;;;;;;;;;9.70;74.80;;;8.60;70.55;94241.78;4207582;33;20129;-90
2022/04/01 08:00:10;;;;;;;;;;;9.70;74.90;;;8.66;70.44;94252.59;4183593;33;20030;-90
2022/04/01 08:03:25;;;;;;;;;;;9.70;74.90;;;8.67;70.55;94235.13;4181281;33;19903;-88
2022/04/01 08:05:55;;;;;;;;;;;9.70;74.90;;;8.75;70.28;94243.38;4163798;33;19902;-89
2022/04/01 08:08:27;;;;;;;;;;;9.80;75.00;;;8.85;70.43;94236.88;4206297;33;19909;-90
2022/04/01 08:11:55;;;;;;;;;;;9.80;74.90;;;8.96;70.03;94239.38;4183988;33;19911;-90
2022/04/01 08:14:24;;;;;;;;;;;9.90;75.00;;;9.05;69.65;94232.84;4184056;33;19903;-91
2022/04/01 08:16:56;;;;;;;;;;;10.00;74.60;;;9.11;69.45;94230.81;4182987;33;19903;-90
2022/04/01 08:19:24;;;;;;;;;;;10.00;74.30;;;9.16;69.42;94225.22;4207532;33;20073;-89
2022/04/01 08:22:04;;;;;;;;;;;10.10;74.10;;;9.17;68.91;94226.84;4183478;33;19903;-90
2022/04/01 08:24:34;;;;;;;;;;;10.20;73.80;;;9.20;69.18;94226.22;4187551;33;19902;-90
2022/04/01 08:27:03;;;;;;;;;;;10.20;73.70;;;9.24;68.85;94233.78;4206276;33;19942;-90
2022/04/01 08:29:32;;;;;;;;;;;10.20;73.40;;;9.26;69.00;94237.00;4206532;33;20245;-90
2022/04/01 08:32:18;;;;;;;;;;;10.20;73.30;;;9.25;69.02;94224.47;4206476;33;19910;-89
2022/04/01 08:34:47;;;;;;;;;;;10.20;73.20;;;9.25;68.91;94227.22;4160095;33;19903;-90
2022/04/01 08:37:17;;;;;;;;;;;10.20;73.20;;;9.20;68.91;94220.78;4206397;33;19903;-89
2022/04/01 08:39:47;;;;;;;;;;;10.20;73.00;;;9.12;68.92;94221.50;4174786;34;19903;-89
2022/04/01 08:42:15;;;;;;;;;;;10.20;73.20;;;9.03;68.95;94221.47;4178879;34;20269;-89
2022/04/01 08:44:46;;;;;;;;;;;10.10;73.20;;;8.97;69.57;94222.69;4178570;34;19903;-89
2022/04/01 08:47:15;;;;;;;;;;;10.10;73.50;;;8.90;69.54;94214.94;4132705;34;19903;-89
2022/04/01 08:49:43;;;;;;;;;;;10.00;73.60;;;8.82;70.03;94203.94;4178493;34;19903;-90
2022/04/01 08:52:12;;;;;;;;;;;10.00;73.90;;;8.78;70.25;94208.41;4155652;34;20130;-89
2022/04/01 08:54:42;;;;;;;;;;;9.90;74.20;;;8.74;70.28;94213.66;4160332;33;20162;-90
2022/04/01 08:57:10;;;;;;;;;;;9.80;74.30;;;8.69;70.41;94197.44;4162971;34;19971;-91
2022/04/01 08:59:39;;;;;;;;;;;9.80;74.60;;;8.65;70.65;94204.59;4155534;34;20019;-90
2022/04/01 09:02:09;;;;;;;;;;;9.80;74.80;;;8.63;70.96;94212.28;4155537;34;19904;-90
2022/04/01 09:04:38;;;;;;;;;;;9.70;74.90;;;8.62;70.91;94205.22;4178568;34;19903;-90
2022/04/01 09:07:16;;;;;;;;;;;9.70;75.10;;;8.60;70.80;94200.09;4179339;34;20030;-90
2022/04/01 09:09:46;;;;;;;;;;;9.70;75.20;;;8.56;71.05;94202.63;4155411;34;19903;-91
2022/04/01 09:12:51;;;;;;;;;;;9.70;75.40;;;8.53;71.01;94200.50;4155624;34;20067;-89
2022/04/01 09:15:20;;;;;;;;;;;9.70;75.40;;;8.55;71.28;94206.47;4132255;34;20063;-89
2022/04/01 09:17:50;;;;;;;;;;;9.60;75.40;;;8.54;71.28;94204.03;4154825;34;19903;-89
2022/04/01 09:20:19;;;;;;;;;;;9.60;75.50;;;8.52;71.24;94214.47;4156042;34;20142;-90
2022/04/01 09:22:48;;;;;;;;;;;9.60;75.60;;;8.51;71.54;94216.34;4155727;34;19910;-90
2022/04/01 09:25:21;;;;;;;;;;;9.60;75.60;;;8.47;71.31;94209.88;4155701;34;20164;-89
2022/04/01 09:27:51;;;;;;;;;;;9.60;75.70;;;8.49;71.47;94215.84;4178510;34;20129;-90
2022/04/01 09:30:21;;;;;;;;;;;9.60;75.80;;;8.48;71.49;94214.25;4178401;34;19910;-90
2022/04/01 09:32:51;;;;;;;;;;;9.60;75.80;;;8.49;71.04;94223.25;4155495;34;20073;-90
2022/04/01 09:35:22;;;;;;;;;;;9.60;75.80;;;8.46;71.47;94219.16;4178489;34;20314;-90
2022/04/01 09:37:53;;;;;;;;;;;9.60;75.80;;;8.48;71.75;94218.91;4155190;34;19910;-91
2022/04/01 09:40:24;;;;;;;;;;;9.60;75.80;;;8.47;71.72;94211.78;4155442;34;19903;-90
2022/04/01 09:42:54;;;;;;;;;;;9.60;75.80;;;8.45;71.39;94214.84;4155241;34;19978;-91
2022/04/01 09:45:24;;;;;;;;;;;9.50;76.00;;;8.44;71.72;94219.47;4155236;34;19903;-91
2022/04/01 09:48:01;;;;;;;;;;;9.50;75.90;;;8.45;71.42;94225.75;4177836;34;19910;-91
2022/04/01 09:53:16;;;;;;;;;;;9.50;75.90;;;8.41;71.61;94220.06;4154819;34;19903;-90
2022/04/01 09:55:47;;;;;;;;;;;9.50;76.00;;;8.41;71.61;94225.53;4158934;33;19903;-91
2022/04/01 09:58:16;;;;;;;;;;;9.50;76.00;;;8.40;71.81;94232.09;4205765;33;20048;-89
2022/04/01 10:00:49;;;;;;;;;;;9.50;76.10;;;8.39;72.03;94229.69;4182846;33;19910;-90
2022/04/01 10:03:18;;;;;;;;;;;9.50;76.20;;;8.41;71.88;94233.72;4205795;33;20107;-90
2022/04/01 10:09:02;;;;;;;;;;;9.50;76.30;;;8.38;71.93;94238.97;4156512;33;19903;-90
2022/04/01 10:11:32;;;;;;;;;;;9.50;76.20;;;8.39;71.71;94243.31;4183037;33;20171;-91
2022/04/01 10:14:04;;;;;;;;;;;9.50;76.20;;;8.38;71.77;94245.25;4182636;33;19903;-90
2022/04/01 10:16:35;;;;;;;;;;;9.50;76.30;;;8.36;72.13;94242.00;4182127;33;20010;-91
2022/04/01 10:19:12;;;;;;;;;;;9.50;76.40;;;8.37;72.11;94242.81;4205583;33;20164;-90
2022/04/01 10:21:43;;;;;;;;;;;9.50;76.40;;;8.38;71.99;94241.69;4205848;33;19903;-90
2022/04/01 10:24:33;;;;;;;;;;;9.50;76.40;;;8.34;71.81;94233.34;4182418;33;19902;-90
2022/04/01 10:27:16;;;;;;;;;;;9.50;76.40;;;8.35;72.52;94234.94;4182187;33;19903;-91
2022/04/01 10:29:45;;;;;;;;;;;9.50;76.40;;;8.35;72.19;94236.84;4205525;33;19930;-89
2022/04/01 10:32:25;;;;;;;;;;;9.50;76.50;;;8.36;72.22;94246.66;4184584;33;19982;-90
2022/04/01 10:35:12;;;;;;;;;;;9.40;76.40;;;8.36;71.87;94241.19;4184605;33;19903;-89
2022/04/01 10:41:35;;;;;;;;;;;9.40;76.40;;;8.34;71.42;94251.59;4160372;33;20344;-89
2022/04/01 10:44:06;;;;;;;;;;;9.40;76.50;;;8.31;71.96;94241.31;4184134;33;19925;-87
2022/04/01 10:46:35;;;;;;;;;;;9.40;76.50;;;8.33;71.83;94255.44;4207240;33;19903;-90
2022/04/01 10:52:04;;;;;;;;;;;9.40;76.50;;;8.32;72.39;94273.72;4185168;33;19910;-87
2022/04/01 10:54:43;;;;;;;;;;;9.40;76.50;;;8.33;72.00;94271.78;4184357;33;20162;-90
2022/04/01 10:57:26;;;;;;;;;;;9.40;76.60;;;8.32;72.12;94279.16;4183711;33;19903;-88
2022/04/01 10:59:59;;;;;;;;;;;9.40;76.70;;;8.31;72.07;94271.31;4184562;33;19903;-89
2022/04/01 11:02:28;;;;;;;;;;;9.40;76.60;;;8.32;72.30;94262.03;4199422;33;20109;-90
2022/04/01 11:05:54;;;;;;;;;;;9.40;76.70;;;8.32;72.70;94265.53;4184134;33;19918;-89
2022/04/01 11:08:23;;;;;;;;;;;9.40;76.70;;;8.32;72.57;94267.47;4169121;33;20111;-89
2022/04/01 11:11:06;;;;;;;;;;;9.40;76.70;;;8.33;72.58;94258.16;4156523;34;20230;-89
2022/04/01 11:13:36;;;;;;;;;;;9.40;76.80;;;8.33;72.60;94253.53;4156655;34;19910;-90
2022/04/01 11:16:16;;;;;;;;;;;9.40;76.80;;;8.35;72.51;94255.94;4179574;34;20286;-89
2022/04/01 11:19:19;;;;;;;;;;;9.40;76.80;;;8.35;72.58;94262.22;4156592;34;19903;-88
2022/04/01 11:21:49;;;;;;;;;;;9.40;76.80;;;8.33;72.35;94252.69;4102920;34;19966;-88
2022/04/01 11:24:33;;;;;;;;;;;9.40;76.70;;;8.36;72.69;94266.56;4106190;34;19910;-89
2022/04/01 11:27:08;;;;;;;;;;;9.40;76.70;;;8.34;72.20;94257.88;4163262;33;19971;-88
2022/04/01 11:29:37;;;;;;;;;;;9.50;76.70;;;8.33;72.43;94253.53;4207321;33;19910;-88
2022/04/01 11:32:08;;;;;;;;;;;9.40;76.60;;;8.35;72.19;94251.31;4183810;33;19903;-88
2022/04/01 11:34:58;;;;;;;;;;;9.50;76.80;;;8.36;72.58;94249.38;4183497;33;20221;-87
2022/04/01 11:37:26;;;;;;;;;;;9.50;76.80;;;8.36;72.26;94246.66;4156556;33;20057;-89
2022/04/01 11:40:06;;;;;;;;;;;9.50;76.80;;;8.35;72.33;94245.84;4183597;33;19926;-89
2022/04/01 11:42:34;;;;;;;;;;;9.50;76.80;;;8.36;72.50;94246.66;4183382;33;19903;-88
2022/04/01 11:45:03;;;;;;;;;;;9.50;76.80;;;8.37;72.43;94246.34;4160916;33;20005;-89
2022/04/01 11:47:35;;;;;;;;;;;9.50;76.90;;;8.35;72.44;94248.56;4183441;33;20053;-89
2022/04/01 11:50:09;;;;;;;;;;;9.50;76.80;;;8.35;72.64;94234.13;4183762;33;19913;-89
2022/04/01 11:52:41;;;;;;;;;;;9.50;76.80;;;8.37;72.35;94246.34;4206840;33;19910;-89
2022/04/01 11:55:14;;;;;;;;;;;9.50;76.80;;;8.36;72.35;94241.19;4183540;33;20236;-88
2022/04/01 11:57:42;;;;;;;;;;;9.50;76.80;;;8.37;72.52;94248.25;4183514;33;20133;-88
2022/04/01 12:00:13;;;;;;;;;;;9.50;76.80;;;8.37;72.04;94251.00;4183545;33;20107;-89
2022/04/01 12:02:51;;;;;;;;;;;9.50;76.80;;;8.38;72.45;94247.16;4183568;33;19910;-88
2022/04/01 12:05:21;;;;;;;;;;;9.50;76.80;;;8.40;72.50;94243.00;4183645;33;20090;-89
2022/04/01 12:10:42;;;;;;;;;;;9.50;76.80;;;8.40;72.24;94215.72;4206504;33;19903;-88
2022/04/01 12:13:11;;;;;;;;;;;9.50;76.70;;;8.40;72.35;94202.09;4160635;33;20156;-89
2022/04/01 12:15:42;;;;;;;;;;;9.50;76.70;;;8.41;72.29;94200.19;4183086;33;19909;-88
2022/04/01 12:18:14;;;;;;;;;;;9.50;76.70;;;8.43;72.12;94197.97;4206147;33;19910;-88
2022/04/01 12:20:55;;;;;;;;;;;9.50;76.70;;;8.42;72.55;94191.69;4183156;33;19970;-89
2022/04/01 12:23:26;;;;;;;;;;;9.50;76.70;;;8.42;72.38;94207.25;4182930;33;19903;-90
2022/04/01 12:25:56;;;;;;;;;;;9.50;76.70;;;8.45;72.36;94206.66;4183362;33;19962;-89
2022/04/01 12:28:25;;;;;;;;;;;9.50;76.80;;;8.43;72.42;94214.34;4185299;33;20099;-90
2022/04/01 12:31:00;;;;;;;;;;;9.50;76.70;;;8.45;72.53;94210.19;4182979;33;20016;-90
2022/04/01 12:33:35;;;;;;;;;;;9.50;76.70;;;8.45;72.51;94204.72;4183259;33;19910;-90
2022/04/01 12:36:04;;;;;;;;;;;9.50;76.70;;;8.44;72.15;94194.13;4183470;33;20240;-90